createdAt,value
2022-09-17T00:01:29.494Z,3.90
2022-09-17T00:04:01.449Z,3.60
2022-09-17T00:06:29.293Z,3.80
2022-09-17T00:08:58.540Z,3.77
2022-09-17T00:11:28.977Z,4.63
2022-09-17T00:13:58.634Z,3.63
2022-09-17T00:16:29.757Z,4.37
2022-09-17T00:18:58.335Z,3.90
2022-09-17T00:21:27.014Z,3.70
2022-09-17T00:23:56.353Z,4.10
2022-09-17T00:26:26.440Z,3.60
2022-09-17T00:28:55.788Z,3.50
2022-09-17T00:31:25.008Z,3.07
2022-09-17T00:33:53.222Z,3.63
2022-09-17T00:36:21.401Z,2.80
2022-09-17T00:38:50.709Z,3.00
2022-09-17T00:41:18.953Z,3.03
2022-09-17T00:43:50.935Z,2.50
2022-09-17T00:46:30.513Z,2.67
2022-09-17T00:49:00.821Z,3.33
2022-09-17T00:51:34.577Z,3.47
2022-09-17T00:54:03.838Z,2.90
2022-09-17T00:56:35.896Z,2.67
2022-09-17T00:59:05.566Z,2.80
2022-09-17T01:01:33.641Z,2.60
2022-09-17T01:04:01.749Z,2.70
2022-09-17T01:06:35.459Z,2.70
2022-09-17T01:09:18.549Z,2.60
2022-09-17T01:12:10.720Z,3.20
2022-09-17T01:15:01.271Z,2.63
2022-09-17T01:17:37.504Z,2.90
2022-09-17T01:20:42.080Z,3.13
2022-09-17T01:23:38.349Z,2.60
2022-09-17T01:26:29.650Z,2.53
2022-09-17T01:29:06.873Z,2.77
2022-09-17T01:31:42.007Z,2.30
2022-09-17T01:34:17.661Z,2.30
2022-09-17T01:36:56.878Z,2.27
2022-09-17T01:39:35.358Z,2.30
2022-09-17T01:42:16.049Z,2.83
2022-09-17T01:44:52.058Z,2.73
2022-09-17T01:47:24.072Z,2.80
2022-09-17T01:49:56.056Z,2.60
2022-09-17T01:52:26.298Z,2.87
2022-09-17T01:54:57.813Z,2.60
2022-09-17T01:57:31.372Z,3.00
2022-09-17T02:00:03.455Z,2.73
2022-09-17T02:02:36.261Z,2.53
2022-09-17T02:05:07.753Z,2.60
2022-09-17T02:07:42.330Z,2.73
2022-09-17T02:10:14.767Z,2.73
2022-09-17T02:12:47.302Z,2.17
2022-09-17T02:15:21.036Z,2.43
2022-09-17T02:17:54.673Z,2.60
2022-09-17T02:20:28.723Z,2.63
2022-09-17T02:22:58.880Z,2.43
2022-09-17T02:25:32.333Z,2.50
2022-09-17T02:28:04.603Z,2.90
2022-09-17T02:30:33.084Z,2.07
2022-09-17T02:33:04.961Z,2.43
2022-09-17T02:35:33.229Z,2.90
2022-09-17T02:38:01.259Z,2.20
2022-09-17T02:40:33.956Z,2.47
2022-09-17T02:43:11.895Z,2.63
2022-09-17T02:45:53.373Z,2.10
2022-09-17T02:48:50.270Z,2.50
2022-09-17T02:51:36.860Z,2.43
2022-09-17T02:54:17.175Z,2.53
2022-09-17T02:56:52.001Z,2.40
2022-09-17T02:59:25.141Z,2.90
2022-09-17T03:01:59.631Z,2.70
2022-09-17T03:04:30.540Z,2.67
2022-09-17T03:06:59.439Z,2.50
2022-09-17T03:09:27.555Z,2.57
2022-09-17T03:11:55.416Z,3.07
2022-09-17T03:14:23.384Z,2.67
2022-09-17T03:16:51.209Z,3.10
2022-09-17T03:19:19.040Z,3.20
2022-09-17T03:21:48.252Z,2.80
2022-09-17T03:24:16.086Z,3.57
2022-09-17T03:26:43.916Z,2.80
2022-09-17T03:29:11.753Z,2.43
2022-09-17T03:31:39.580Z,3.90
2022-09-17T03:34:07.593Z,3.00
2022-09-17T03:36:35.737Z,2.50
2022-09-17T03:39:05.069Z,2.70
2022-09-17T03:41:32.900Z,2.37
2022-09-17T03:44:00.713Z,3.13
2022-09-17T03:46:28.572Z,2.60
2022-09-17T03:48:56.403Z,2.90
2022-09-17T03:51:24.265Z,2.60
2022-09-17T03:53:52.089Z,2.20
2022-09-17T03:56:21.240Z,2.53
2022-09-17T03:58:49.256Z,3.27
2022-09-17T04:01:17.154Z,2.90
2022-09-17T04:03:45.890Z,3.00
2022-09-17T04:06:13.710Z,2.30
2022-09-17T04:08:41.732Z,2.87
2022-09-17T04:11:10.029Z,3.23
2022-09-17T04:13:39.237Z,3.33
2022-09-17T04:16:07.469Z,3.00
2022-09-17T04:18:35.386Z,4.03
2022-09-17T04:21:03.652Z,2.70
2022-09-17T04:23:31.467Z,2.57
2022-09-17T04:25:59.369Z,2.80
2022-09-17T04:28:27.224Z,2.67
2022-09-17T04:30:57.622Z,2.90
2022-09-17T04:33:26.420Z,2.80
2022-09-17T04:35:54.859Z,2.73
2022-09-17T04:38:22.753Z,2.33
2022-09-17T04:40:51.496Z,3.17
2022-09-17T04:43:19.337Z,2.50
2022-09-17T04:45:47.501Z,3.67
2022-09-17T04:48:16.692Z,2.50
2022-09-17T04:50:44.828Z,2.80
2022-09-17T04:53:12.855Z,2.67
2022-09-17T04:55:40.717Z,2.50
2022-09-17T04:58:08.524Z,2.33
2022-09-17T05:00:36.387Z,2.30
2022-09-17T05:03:04.840Z,2.60
2022-09-17T05:05:34.050Z,2.30
2022-09-17T05:08:02.077Z,2.20
2022-09-17T05:10:30.137Z,2.50
2022-09-17T05:12:58.365Z,2.20
2022-09-17T05:15:27.748Z,2.20
2022-09-17T05:17:55.628Z,2.07
2022-09-17T05:20:23.575Z,2.40
2022-09-17T05:22:53.814Z,1.83
2022-09-17T05:25:23.995Z,2.17
2022-09-17T05:27:53.009Z,2.03
2022-09-17T05:30:21.321Z,2.37
2022-09-17T05:32:49.693Z,2.20
2022-09-17T05:35:17.805Z,2.50
2022-09-17T05:37:45.613Z,2.33
2022-09-17T05:40:15.386Z,1.80
2022-09-17T05:42:43.300Z,1.90
2022-09-17T05:45:11.896Z,2.27
2022-09-17T05:47:39.688Z,1.80
2022-09-17T05:50:07.793Z,1.80
2022-09-17T05:52:35.596Z,2.20
2022-09-17T05:55:03.514Z,2.07
2022-09-17T05:57:32.690Z,1.97
2022-09-17T06:00:00.514Z,2.40
2022-09-17T06:02:28.477Z,1.90
2022-09-17T06:04:56.370Z,2.23
2022-09-17T06:07:24.217Z,1.80
2022-09-17T06:09:52.027Z,2.63
2022-09-17T06:12:19.944Z,2.07
2022-09-17T06:14:49.369Z,2.07
2022-09-17T06:17:21.575Z,2.40
2022-09-17T06:19:50.123Z,2.30
2022-09-17T06:22:19.985Z,2.30
2022-09-17T06:24:47.815Z,2.00
2022-09-17T06:27:15.794Z,1.93
2022-09-17T06:29:43.625Z,2.03
2022-09-17T06:32:15.482Z,2.10
2022-09-17T06:34:43.714Z,1.73
2022-09-17T06:37:11.532Z,1.70
2022-09-17T06:39:40.057Z,2.03
2022-09-17T06:42:08.115Z,2.10
2022-09-17T06:44:36.013Z,2.77
2022-09-17T06:47:03.836Z,2.00
2022-09-17T06:49:33.013Z,2.00
2022-09-17T06:52:00.817Z,1.73
2022-09-17T06:54:28.613Z,1.50
2022-09-17T06:56:56.464Z,1.47
2022-09-17T06:59:24.457Z,1.53
2022-09-17T07:01:52.335Z,1.23
2022-09-17T07:04:20.216Z,1.20
2022-09-17T07:06:49.443Z,1.30
2022-09-17T07:09:17.324Z,1.63
2022-09-17T07:11:45.344Z,1.30
2022-09-17T07:14:13.280Z,1.20
2022-09-17T07:16:41.073Z,0.90
2022-09-17T07:19:09.123Z,1.17
2022-09-17T07:21:36.986Z,1.00
2022-09-17T08:00:46.597Z,1.30
2022-09-17T08:03:15.925Z,1.30
2022-09-17T08:05:43.861Z,1.93
2022-09-17T08:08:11.717Z,1.50
2022-09-17T08:10:39.568Z,1.20
2022-09-17T08:13:07.370Z,1.50
2022-09-17T08:15:35.840Z,2.00
2022-09-17T08:18:03.692Z,1.67
2022-09-17T08:20:32.850Z,1.30
2022-09-17T08:23:01.519Z,1.27
2022-09-17T08:25:29.401Z,1.63
2022-09-17T08:27:57.485Z,1.20
2022-09-17T08:30:25.303Z,2.70
2022-09-17T08:32:55.940Z,1.67
2022-09-17T08:35:24.701Z,1.20
2022-09-17T08:37:55.750Z,1.17
2022-09-17T08:40:24.659Z,1.50
2022-09-17T08:42:57.309Z,1.50
2022-09-17T08:45:26.273Z,1.50
2022-09-17T08:47:56.922Z,1.33
2022-09-17T08:50:29.806Z,1.50
2022-09-17T08:53:11.494Z,1.50
2022-09-17T08:55:44.325Z,1.70
2022-09-17T08:58:28.429Z,2.23
2022-09-17T09:01:04.300Z,1.57
2022-09-17T09:03:59.607Z,1.30
2022-09-17T09:06:32.062Z,1.30
2022-09-17T09:09:04.593Z,1.40
2022-09-17T09:11:33.851Z,1.57
2022-09-17T09:14:09.103Z,1.17
2022-09-17T09:16:41.330Z,1.40
2022-09-17T09:19:20.973Z,1.90
2022-09-17T09:21:58.617Z,1.53
2022-09-17T09:24:32.594Z,1.30
2022-09-17T09:27:08.042Z,1.00
2022-09-17T09:29:43.067Z,1.70
2022-09-17T09:32:22.413Z,1.40
2022-09-17T09:34:51.083Z,1.80
2022-09-17T09:37:23.008Z,1.93
2022-09-17T09:39:54.181Z,2.03
2022-09-17T09:42:30.961Z,1.87
2022-09-17T09:45:04.941Z,2.60
2022-09-17T09:47:49.690Z,2.30
2022-09-17T09:50:54.701Z,1.70
2022-09-17T09:53:29.818Z,2.27
2022-09-17T09:56:13.734Z,1.53
2022-09-17T09:58:42.906Z,1.60
2022-09-17T10:01:15.496Z,1.50
2022-09-17T10:03:46.101Z,1.40
2022-09-17T10:06:15.607Z,2.00
2022-09-17T10:09:01.396Z,2.40
2022-09-17T10:11:33.077Z,1.80
2022-09-17T10:14:16.496Z,1.63
2022-09-17T10:16:44.341Z,1.90
2022-09-17T10:19:15.325Z,1.50
2022-09-17T10:21:44.108Z,1.37
2022-09-17T10:24:23.403Z,1.20
2022-09-17T10:26:54.049Z,1.50
2022-09-17T10:29:22.369Z,1.20
2022-09-17T10:31:51.723Z,1.63
2022-09-17T10:34:24.444Z,1.40
2022-09-17T10:36:52.534Z,1.30
2022-09-17T10:39:30.411Z,1.53
2022-09-17T10:42:01.284Z,1.60
2022-09-17T10:44:31.053Z,1.87
2022-09-17T10:47:08.931Z,1.53
2022-09-17T10:49:42.885Z,1.50
2022-09-17T10:52:15.891Z,1.70
2022-09-17T10:55:06.125Z,1.90
2022-09-17T10:57:49.883Z,1.50
2022-09-17T11:00:20.724Z,1.40
2022-09-17T11:03:30.559Z,1.23
2022-09-17T11:06:25.422Z,1.40
2022-09-17T11:09:01.955Z,1.40
2022-09-17T11:11:40.199Z,1.30
2022-09-17T11:14:20.965Z,1.20
2022-09-17T11:16:57.646Z,1.83
2022-09-17T11:19:37.375Z,1.73
2022-09-17T11:22:12.655Z,1.20
2022-09-17T11:25:10.053Z,1.50
2022-09-17T11:27:51.653Z,1.70
2022-09-17T11:30:23.217Z,1.50
2022-09-17T11:33:26.313Z,2.00
2022-09-17T11:36:00.130Z,1.47
2022-09-17T11:38:34.516Z,0.90
2022-09-17T11:41:07.354Z,1.40
2022-09-17T11:43:37.141Z,0.90
2022-09-17T11:46:10.317Z,1.03
2022-09-17T11:48:46.476Z,0.80
2022-09-17T11:51:23.463Z,0.83
2022-09-17T11:53:56.918Z,0.90
2022-09-17T11:56:27.557Z,0.80
2022-09-17T11:58:59.949Z,1.10
2022-09-17T12:01:38.054Z,0.97
2022-09-17T12:04:25.775Z,1.00
2022-09-17T12:07:00.831Z,0.93
2022-09-17T12:09:33.849Z,1.10
2022-09-17T12:12:06.780Z,1.13
2022-09-17T12:14:45.038Z,1.10
2022-09-17T12:17:22.470Z,1.43
2022-09-17T12:19:56.092Z,1.60
2022-09-17T12:22:27.581Z,1.27
2022-09-17T12:24:55.921Z,1.30
2022-09-17T12:27:34.952Z,1.57
2022-09-17T12:30:12.412Z,1.13
2022-09-17T12:32:54.206Z,1.40
2022-09-17T12:36:02.360Z,1.30
2022-09-17T12:38:48.047Z,1.30
2022-09-17T12:41:20.942Z,1.20
2022-09-17T12:44:00.646Z,1.30
2022-09-17T12:46:45.238Z,1.60
2022-09-17T12:49:37.730Z,1.20
2022-09-17T12:52:14.789Z,1.20
2022-09-17T12:55:05.268Z,1.20
2022-09-17T12:57:41.789Z,1.40
2022-09-17T13:00:13.225Z,1.10
2022-09-17T13:02:46.495Z,1.13
2022-09-17T13:05:43.601Z,1.17
2022-09-17T13:08:47.742Z,1.43
2022-09-17T13:11:55.018Z,1.40
2022-09-17T13:14:31.184Z,1.27
2022-09-17T13:17:07.125Z,1.10
2022-09-17T13:19:41.438Z,0.90
2022-09-17T13:22:18.110Z,1.00
2022-09-17T13:24:48.097Z,1.20
2022-09-17T13:27:23.456Z,1.40
2022-09-17T13:30:03.150Z,1.33
2022-09-17T13:32:44.769Z,1.33
2022-09-17T13:35:55.367Z,1.00
2022-09-17T13:38:24.886Z,1.00
2022-09-17T13:40:53.291Z,1.23
2022-09-17T13:43:27.015Z,1.80
2022-09-17T13:46:13.970Z,1.20
2022-09-17T13:48:58.566Z,1.53
2022-09-17T13:51:54.681Z,1.23
2022-09-17T13:54:25.663Z,1.20
2022-09-17T13:57:13.181Z,1.30
2022-09-17T13:59:55.107Z,1.50
2022-09-17T14:02:37.919Z,1.57
2022-09-17T14:05:29.168Z,1.10
2022-09-17T14:08:13.483Z,1.13
2022-09-17T14:10:47.324Z,1.43
2022-09-17T14:13:28.767Z,1.63
2022-09-17T14:16:05.297Z,1.23
2022-09-17T14:18:38.744Z,1.10
2022-09-17T14:21:14.403Z,1.47
2022-09-17T14:23:47.416Z,1.63
2022-09-17T14:26:24.992Z,1.30
2022-09-17T14:29:00.942Z,1.13
2022-09-17T14:31:34.920Z,1.37
2022-09-17T14:34:05.662Z,1.50
2022-09-17T14:36:38.333Z,3.30
2022-09-17T14:39:14.101Z,1.40
2022-09-17T14:41:45.761Z,1.70
2022-09-17T14:44:16.404Z,1.90
2022-09-17T14:46:50.497Z,1.40
2022-09-17T14:49:22.697Z,1.40
2022-09-17T14:51:50.761Z,2.23
2022-09-17T14:54:24.761Z,1.70
2022-09-17T14:56:59.674Z,1.43
2022-09-17T14:59:41.736Z,2.17
2022-09-17T15:02:28.008Z,1.17
2022-09-17T15:04:56.127Z,1.50
2022-09-17T15:07:25.516Z,1.13
2022-09-17T15:09:55.404Z,1.00
2022-09-17T15:12:29.526Z,1.43
2022-09-17T15:14:59.130Z,2.20
2022-09-17T15:17:27.055Z,2.47
2022-09-17T15:19:59.021Z,3.10
2022-09-17T15:22:29.273Z,1.97
2022-09-17T15:25:01.016Z,1.00
2022-09-17T15:27:34.783Z,1.20
2022-09-17T15:30:05.647Z,1.53
2022-09-17T15:32:34.384Z,6.13
2022-09-17T15:35:20.321Z,0.80
2022-09-17T15:38:11.875Z,0.80
2022-09-17T15:40:40.895Z,1.00
2022-09-17T15:43:19.521Z,1.30
2022-09-17T15:45:47.353Z,1.00
2022-09-17T15:48:35.876Z,1.00
2022-09-17T15:51:06.838Z,0.90
2022-09-17T15:53:38.285Z,1.40
2022-09-17T15:56:09.345Z,0.97
2022-09-17T15:58:55.312Z,1.00
2022-09-17T16:01:51.655Z,0.90
2022-09-17T16:04:25.129Z,1.30
2022-09-17T16:07:01.650Z,1.10
2022-09-17T16:09:41.485Z,2.50
2022-09-17T16:12:12.132Z,1.80
2022-09-17T16:14:44.502Z,2.33
2022-09-17T16:17:35.249Z,2.80
2022-09-17T16:20:09.900Z,2.87
2022-09-17T16:22:37.825Z,2.50
2022-09-17T16:25:06.578Z,2.50
2022-09-17T16:27:47.296Z,1.40
2022-09-17T16:30:19.154Z,1.63
2022-09-17T16:32:47.783Z,1.20
2022-09-17T16:35:17.738Z,1.20
2022-09-17T16:37:48.879Z,0.80
2022-09-17T16:40:17.064Z,1.40
2022-09-17T16:42:44.912Z,2.00
2022-09-17T16:45:13.250Z,1.80
2022-09-17T16:47:43.273Z,1.20
2022-09-17T16:50:13.978Z,1.37
2022-09-17T16:52:42.378Z,1.00
2022-09-17T16:55:10.553Z,1.10
2022-09-17T16:57:38.377Z,1.40
2022-09-17T17:00:08.317Z,1.10
2022-09-17T17:02:36.315Z,1.10
2022-09-17T17:05:06.345Z,0.83
2022-09-17T17:07:35.550Z,0.97
2022-09-17T17:10:03.548Z,1.03
2022-09-17T17:12:31.873Z,1.10
2022-09-17T17:14:59.664Z,1.00
2022-09-17T17:17:27.730Z,1.30
2022-09-17T17:19:55.606Z,1.00
2022-09-17T17:22:26.159Z,1.13
2022-09-17T17:24:53.941Z,1.00
2022-09-17T17:27:21.730Z,1.07
2022-09-17T17:29:49.566Z,1.40
2022-09-17T17:32:17.388Z,0.80
2022-09-17T17:34:45.645Z,1.20
2022-09-17T17:37:14.183Z,0.80
2022-09-17T17:39:43.479Z,0.70
2022-09-17T17:42:11.332Z,0.83
2022-09-17T17:44:39.175Z,1.30
2022-09-17T17:47:07.596Z,1.20
2022-09-17T17:49:35.447Z,1.70
2022-09-17T17:52:03.608Z,1.80
2022-09-17T17:54:31.591Z,1.50
2022-09-17T17:57:00.819Z,1.03
2022-09-17T17:59:28.683Z,0.80
2022-09-17T18:01:56.683Z,0.80
2022-09-17T18:04:24.704Z,0.70
2022-09-17T18:06:52.532Z,0.70
2022-09-17T18:09:20.358Z,1.17
2022-09-17T18:11:48.190Z,0.87
2022-09-17T18:14:17.545Z,0.80
2022-09-17T18:16:45.373Z,0.90
2022-09-17T18:19:13.291Z,0.97
2022-09-17T18:21:41.528Z,0.80
2022-09-17T18:24:09.347Z,1.00
2022-09-17T18:26:37.409Z,1.00
2022-09-17T18:29:07.961Z,0.83
2022-09-17T18:31:37.769Z,0.90
2022-09-17T18:34:07.544Z,0.77
2022-09-17T18:36:36.852Z,0.80
2022-09-17T18:39:44.491Z,1.10
2022-09-17T18:41:54.478Z,1.00
2022-09-17T18:44:22.428Z,1.17
2022-09-17T18:46:51.796Z,1.63
2022-09-17T18:49:19.778Z,0.93
2022-09-17T18:51:58.333Z,0.90
2022-09-17T18:54:26.236Z,1.40
2022-09-17T18:56:54.096Z,2.83
2022-09-17T18:59:21.898Z,1.47
2022-09-17T19:01:51.150Z,1.20
2022-09-17T19:04:19.029Z,1.30
2022-09-17T19:06:47.056Z,1.50
2022-09-17T19:09:14.880Z,2.83
2022-09-17T19:11:42.671Z,5.10
2022-09-17T19:14:11.008Z,1.40
2022-09-17T19:16:38.864Z,2.20
2022-09-17T19:19:08.291Z,1.13
2022-09-17T19:21:36.133Z,1.10
2022-09-17T19:24:04.441Z,2.83
2022-09-17T19:26:32.316Z,2.13
2022-09-17T19:29:01.197Z,1.17
2022-09-17T19:31:29.534Z,1.10
2022-09-17T19:33:58.422Z,2.23
2022-09-17T19:36:27.638Z,1.50
2022-09-17T19:38:55.536Z,1.10
2022-09-17T19:41:24.016Z,1.63
2022-09-17T19:43:52.750Z,1.47
2022-09-17T19:46:22.418Z,1.50
2022-09-17T19:48:52.118Z,1.20
2022-09-17T19:51:20.931Z,1.13
2022-09-17T19:53:50.306Z,1.50
2022-09-17T19:56:21.032Z,1.63
2022-09-17T19:58:49.034Z,1.60
2022-09-17T20:01:17.279Z,1.07
2022-09-17T20:03:46.442Z,1.40
2022-09-17T20:06:16.790Z,1.30
2022-09-17T20:08:48.896Z,1.00
2022-09-17T20:11:21.865Z,1.20
2022-09-17T20:13:49.870Z,1.17
2022-09-17T20:16:19.493Z,1.53
2022-09-17T20:18:47.386Z,1.23
2022-09-17T20:21:17.242Z,2.23
2022-09-17T20:23:45.556Z,1.27
2022-09-17T20:26:14.644Z,1.67
2022-09-17T20:28:44.631Z,1.67
2022-09-17T20:31:14.822Z,1.40
2022-09-17T20:33:43.101Z,1.20
2022-09-17T20:36:14.284Z,1.43
2022-09-17T20:39:10.635Z,1.77
2022-09-17T20:41:31.475Z,1.10
2022-09-17T20:44:00.848Z,1.90
2022-09-17T20:46:29.792Z,2.70
2022-09-17T20:48:58.603Z,1.67
2022-09-17T20:51:28.341Z,2.63
2022-09-17T20:53:56.970Z,2.10
2022-09-17T20:56:26.896Z,1.63
2022-09-17T20:59:01.301Z,1.57
2022-09-17T21:01:34.370Z,1.40
2022-09-17T21:04:04.318Z,1.60
2022-09-17T21:06:33.989Z,1.30
2022-09-17T21:09:02.468Z,1.23
2022-09-17T21:11:31.981Z,1.37
2022-09-17T21:14:00.835Z,2.13
2022-09-17T21:16:29.135Z,1.53
2022-09-17T21:18:59.410Z,1.20
2022-09-17T21:21:28.265Z,1.23
2022-09-17T21:23:56.286Z,1.13
2022-09-17T21:26:25.024Z,1.13
2022-09-17T21:28:55.153Z,1.60
2022-09-17T21:31:28.483Z,1.37
2022-09-17T21:34:03.373Z,1.10
2022-09-17T21:36:33.129Z,1.30
2022-09-17T21:39:04.725Z,1.60
2022-09-17T21:41:33.084Z,1.23
2022-09-17T21:44:00.901Z,1.80
2022-09-17T21:46:30.324Z,1.93
2022-09-17T21:49:02.204Z,1.77
2022-09-17T21:51:32.095Z,1.57
2022-09-17T21:54:02.286Z,2.10
2022-09-17T21:56:31.470Z,1.67
2022-09-17T21:59:01.874Z,1.60
2022-09-17T22:01:32.633Z,2.00
2022-09-17T22:04:02.218Z,1.20
2022-09-17T22:06:31.416Z,1.20
2022-09-17T22:09:00.988Z,0.80
2022-09-17T22:11:31.195Z,0.80
2022-09-17T22:14:04.724Z,1.10
2022-09-17T22:16:35.860Z,1.10
2022-09-17T22:19:06.007Z,0.80
2022-09-17T22:21:36.063Z,0.80
2022-09-17T22:24:05.078Z,0.97
2022-09-17T22:26:34.708Z,0.60
2022-09-17T22:29:04.113Z,0.97
2022-09-17T22:31:32.587Z,0.97
2022-09-17T22:34:00.710Z,0.80
2022-09-17T22:36:29.957Z,0.90
2022-09-17T22:38:58.956Z,0.70
2022-09-17T22:41:28.167Z,0.90
2022-09-17T22:43:57.860Z,0.80
2022-09-17T22:46:27.065Z,0.77
2022-09-17T22:48:55.617Z,0.77
2022-09-17T22:51:23.512Z,0.63
2022-09-17T22:53:53.269Z,0.93
2022-09-17T22:56:23.211Z,0.90
2022-09-17T22:58:51.565Z,0.70
2022-09-17T23:01:22.149Z,0.93
2022-09-17T23:03:51.866Z,1.10
2022-09-17T23:06:22.082Z,0.73
2022-09-17T23:08:49.960Z,1.13
2022-09-17T23:11:20.769Z,0.90
2022-09-17T23:13:49.329Z,0.80
2022-09-17T23:16:18.301Z,1.10
2022-09-17T23:18:47.041Z,0.97
2022-09-17T23:21:16.434Z,0.80
2022-09-17T23:23:46.444Z,1.30
2022-09-17T23:26:15.981Z,1.10
2022-09-17T23:28:45.810Z,1.10
2022-09-17T23:31:15.751Z,1.00
2022-09-17T23:33:44.140Z,1.10
2022-09-17T23:36:13.812Z,0.90
2022-09-17T23:38:42.560Z,1.20
2022-09-17T23:41:12.527Z,1.50
2022-09-17T23:43:40.632Z,0.93
2022-09-17T23:46:10.371Z,0.80
2022-09-17T23:48:38.328Z,1.07
2022-09-17T23:51:06.552Z,1.13
2022-09-17T23:53:35.865Z,1.23
2022-09-17T23:56:04.926Z,1.10
2022-09-17T23:58:35.306Z,1.33
